AAL1939 KORF-KJAX
Flight info
| Callsign | AAL1939 |
|---|---|
| Flight time | 1h 16m |
| Altitude | 38000 |
| Route | NUTIY1 NUTIY COUPN BEETN JIMAR DEEEZ Q409 SESUE ESENT LUNNI2 |
| Aircraft | B789/H-SDE1E2E3FGHIJ2J3J4J5M1RWXY/LB1D1 |
Departure
| Time | 2026-05-05 12:00 |
|---|---|
| Airport | Norfolk International Airport (KORF) |
Arrival
| Time | 2026-05-05 13:16 |
|---|---|
| Airport | Jacksonville International Airport (KJAX) |
| Time | Latitude | Longitude | Altitude | Speed | Heading |
|---|---|---|---|---|---|
| 2026-05-05 11:43 | 36.89846 | -76.20124 | 35 ft | 0 kts | 356° |
| 2026-05-05 11:52 | 36.89847 | -76.20124 | 35 ft | 0 kts | 356° |
| 2026-05-05 11:52 | 36.89817 | -76.20123 | 34 ft | 6 kts | 359° |
| 2026-05-05 11:53 | 36.89814 | -76.20123 | 34 ft | 0 kts | 360° |
| 2026-05-05 11:53 | 36.89818 | -76.20120 | 34 ft | 1 kts | 22° |
| 2026-05-05 11:54 | 36.89821 | -76.20112 | 32 ft | 1 kts | 65° |
| 2026-05-05 11:54 | 36.89816 | -76.20088 | 34 ft | 5 kts | 114° |
| 2026-05-05 11:54 | 36.89776 | -76.20033 | 34 ft | 16 kts | 132° |
| 2026-05-05 11:54 | 36.89774 | -76.19911 | 34 ft | 15 kts | 46° |
| 2026-05-05 11:55 | 36.89857 | -76.19824 | 32 ft | 16 kts | 41° |
| 2026-05-05 11:55 | 36.89944 | -76.19736 | 31 ft | 17 kts | 37° |
| 2026-05-05 11:55 | 36.90068 | -76.19619 | 32 ft | 25 kts | 38° |
| 2026-05-05 11:55 | 36.90214 | -76.19506 | 33 ft | 25 kts | 26° |
| 2026-05-05 11:56 | 36.90356 | -76.19384 | 32 ft | 25 kts | 38° |
| 2026-05-05 11:56 | 36.90457 | -76.19286 | 17 ft | 0 kts | 37° |
| 2026-05-05 11:58 | 36.90473 | -76.19271 | 30 ft | 10 kts | 38° |
| 2026-05-05 11:58 | 36.90560 | -76.19188 | 27 ft | 17 kts | 38° |
| 2026-05-05 11:58 | 36.90603 | -76.19087 | 28 ft | 9 kts | 105° |
| 2026-05-05 11:58 | 36.90573 | -76.19021 | 29 ft | 9 kts | 128° |
| 2026-05-05 11:59 | 36.90528 | -76.18988 | 30 ft | 6 kts | 173° |
| 2026-05-05 11:59 | 36.90478 | -76.19011 | 31 ft | 11 kts | 212° |
| 2026-05-05 11:59 | 36.90445 | -76.19037 | 29 ft | 1 kts | 215° |
| 2026-05-05 11:59 | 36.90242 | -76.19232 | 35 ft | 76 kts | 218° |
| 2026-05-05 12:00 | 36.89630 | -76.19824 | 39 ft | 144 kts | 218° |
| 2026-05-05 12:00 | 36.88746 | -76.20663 | 429 ft | 170 kts | 216° |
| 2026-05-05 12:00 | 36.87741 | -76.21680 | 848 ft | 200 kts | 220° |
| 2026-05-05 12:00 | 36.86581 | -76.22769 | 1567 ft | 209 kts | 219° |
| 2026-05-05 12:01 | 36.85389 | -76.23793 | 2569 ft | 212 kts | 218° |
| 2026-05-05 12:01 | 36.84138 | -76.24823 | 3370 ft | 217 kts | 218° |
| 2026-05-05 12:01 | 36.82908 | -76.25935 | 4154 ft | 220 kts | 227° |
| 2026-05-05 12:01 | 36.82282 | -76.27720 | 4712 ft | 242 kts | 260° |
| 2026-05-05 12:02 | 36.82418 | -76.29888 | 5553 ft | 257 kts | 284° |
| 2026-05-05 12:02 | 36.83243 | -76.31886 | 6519 ft | 269 kts | 300° |
| 2026-05-05 12:02 | 36.84295 | -76.33865 | 7554 ft | 270 kts | 300° |
| 2026-05-05 12:02 | 36.85300 | -76.35863 | 8575 ft | 272 kts | 298° |
| 2026-05-05 12:03 | 36.86274 | -76.37910 | 9610 ft | 275 kts | 298° |
| 2026-05-05 12:03 | 36.87262 | -76.39973 | 10461 ft | 284 kts | 298° |
| 2026-05-05 12:03 | 36.88331 | -76.42181 | 10741 ft | 312 kts | 299° |
| 2026-05-05 12:03 | 36.89508 | -76.44601 | 10984 ft | 339 kts | 299° |
| 2026-05-05 12:04 | 36.90755 | -76.47172 | 11644 ft | 348 kts | 299° |
| 2026-05-05 12:04 | 36.92015 | -76.49775 | 12580 ft | 351 kts | 298° |
| 2026-05-05 12:04 | 36.92933 | -76.52589 | 13383 ft | 351 kts | 281° |
| 2026-05-05 12:04 | 36.93135 | -76.55619 | 14186 ft | 352 kts | 264° |
| 2026-05-05 12:05 | 36.92597 | -76.58593 | 14974 ft | 354 kts | 248° |
| 2026-05-05 12:05 | 36.91849 | -76.60424 | 15478 ft | 357 kts | 239° |
| 2026-05-05 12:05 | 36.90540 | -76.63092 | 16195 ft | 361 kts | 239° |
| 2026-05-05 12:05 | 36.88753 | -76.66630 | 17179 ft | 366 kts | 239° |
| 2026-05-05 12:06 | 36.87837 | -76.68448 | 17694 ft | 368 kts | 239° |
| 2026-05-05 12:06 | 36.86476 | -76.71186 | 18412 ft | 372 kts | 240° |
| 2026-05-05 12:06 | 36.85106 | -76.73941 | 19023 ft | 375 kts | 240° |
| 2026-05-05 12:06 | 36.83732 | -76.76687 | 19639 ft | 378 kts | 240° |
| 2026-05-05 12:07 | 36.82329 | -76.79484 | 20266 ft | 381 kts | 240° |
| 2026-05-05 12:07 | 36.80921 | -76.82295 | 20847 ft | 384 kts | 240° |
| 2026-05-05 12:07 | 36.79497 | -76.85140 | 21432 ft | 387 kts | 240° |
| 2026-05-05 12:07 | 36.78064 | -76.87996 | 22014 ft | 390 kts | 240° |
| 2026-05-05 12:08 | 36.76622 | -76.90867 | 22566 ft | 393 kts | 240° |
| 2026-05-05 12:08 | 36.75166 | -76.93763 | 23110 ft | 396 kts | 240° |
| 2026-05-05 12:08 | 36.73697 | -76.96685 | 23647 ft | 398 kts | 240° |
| 2026-05-05 12:08 | 36.72218 | -76.99623 | 24071 ft | 401 kts | 240° |
| 2026-05-05 12:09 | 36.70773 | -77.02604 | 24487 ft | 403 kts | 243° |
| 2026-05-05 12:09 | 36.69373 | -77.05652 | 24873 ft | 406 kts | 242° |
| 2026-05-05 12:09 | 36.67949 | -77.08696 | 25282 ft | 408 kts | 242° |
| 2026-05-05 12:09 | 36.66517 | -77.11771 | 25655 ft | 411 kts | 242° |
| 2026-05-05 12:10 | 36.65085 | -77.14866 | 26041 ft | 413 kts | 242° |
| 2026-05-05 12:10 | 36.63645 | -77.17971 | 26416 ft | 416 kts | 242° |
| 2026-05-05 12:10 | 36.62184 | -77.21107 | 26769 ft | 419 kts | 242° |
| 2026-05-05 12:10 | 36.60716 | -77.24254 | 27134 ft | 421 kts | 242° |
| 2026-05-05 12:11 | 36.59245 | -77.27411 | 27480 ft | 424 kts | 242° |
| 2026-05-05 12:11 | 36.57762 | -77.30593 | 27825 ft | 426 kts | 242° |
| 2026-05-05 12:11 | 36.56268 | -77.33792 | 28161 ft | 429 kts | 242° |
| 2026-05-05 12:11 | 36.54768 | -77.36998 | 28489 ft | 431 kts | 242° |
| 2026-05-05 12:12 | 36.53251 | -77.40240 | 28813 ft | 433 kts | 242° |
| 2026-05-05 12:12 | 36.51729 | -77.43490 | 29118 ft | 436 kts | 242° |
| 2026-05-05 12:12 | 36.50221 | -77.46707 | 29424 ft | 438 kts | 242° |
| 2026-05-05 12:12 | 36.48665 | -77.50021 | 29708 ft | 440 kts | 242° |
| 2026-05-05 12:13 | 36.47140 | -77.53270 | 30012 ft | 442 kts | 242° |
| 2026-05-05 12:13 | 36.45581 | -77.56587 | 30279 ft | 445 kts | 242° |
| 2026-05-05 12:13 | 36.44014 | -77.59917 | 30537 ft | 446 kts | 242° |
| 2026-05-05 12:13 | 36.42441 | -77.63257 | 30781 ft | 448 kts | 242° |
| 2026-05-05 12:14 | 36.40861 | -77.66609 | 31029 ft | 450 kts | 242° |
| 2026-05-05 12:14 | 36.39276 | -77.69967 | 31273 ft | 451 kts | 241° |
| 2026-05-05 12:14 | 36.37688 | -77.73327 | 31484 ft | 453 kts | 241° |
| 2026-05-05 12:14 | 36.36085 | -77.76719 | 31718 ft | 455 kts | 241° |
| 2026-05-05 12:15 | 36.34481 | -77.80107 | 31934 ft | 456 kts | 241° |
| 2026-05-05 12:15 | 36.32867 | -77.83456 | 32126 ft | 459 kts | 238° |
| 2026-05-05 12:15 | 36.30840 | -77.86596 | 32325 ft | 463 kts | 228° |
| 2026-05-05 12:15 | 36.28457 | -77.89221 | 32524 ft | 468 kts | 219° |
| 2026-05-05 12:16 | 36.25677 | -77.91357 | 32737 ft | 474 kts | 209° |
| 2026-05-05 12:16 | 36.22594 | -77.92888 | 33022 ft | 478 kts | 199° |
| 2026-05-05 12:16 | 36.19390 | -77.93982 | 33223 ft | 479 kts | 199° |
| 2026-05-05 12:16 | 36.16176 | -77.95062 | 33499 ft | 479 kts | 198° |
| 2026-05-05 12:17 | 36.12952 | -77.96123 | 33796 ft | 478 kts | 198° |
| 2026-05-05 12:17 | 36.09743 | -77.97184 | 34080 ft | 478 kts | 198° |
| 2026-05-05 12:17 | 36.06527 | -77.98258 | 34329 ft | 477 kts | 199° |
| 2026-05-05 12:17 | 36.03328 | -77.99325 | 34557 ft | 478 kts | 198° |
| 2026-05-05 12:18 | 36.00109 | -78.00391 | 34736 ft | 478 kts | 198° |
| 2026-05-05 12:18 | 35.96891 | -78.01455 | 34953 ft | 478 kts | 199° |
| 2026-05-05 12:18 | 35.93680 | -78.02519 | 35147 ft | 479 kts | 199° |
| 2026-05-05 12:18 | 35.90463 | -78.03585 | 35351 ft | 479 kts | 199° |
| 2026-05-05 12:19 | 35.87244 | -78.04649 | 35557 ft | 479 kts | 199° |
| 2026-05-05 12:19 | 35.84022 | -78.05713 | 35755 ft | 480 kts | 199° |
| 2026-05-05 12:19 | 35.80826 | -78.06768 | 35951 ft | 480 kts | 199° |
| 2026-05-05 12:19 | 35.77589 | -78.07836 | 36137 ft | 480 kts | 199° |
| 2026-05-05 12:20 | 35.74364 | -78.08898 | 36324 ft | 480 kts | 199° |
| 2026-05-05 12:20 | 35.71132 | -78.09962 | 36515 ft | 481 kts | 199° |
| 2026-05-05 12:20 | 35.67906 | -78.11023 | 36699 ft | 481 kts | 199° |
| 2026-05-05 12:20 | 35.64663 | -78.12090 | 36884 ft | 481 kts | 199° |
| 2026-05-05 12:21 | 35.61468 | -78.13139 | 37075 ft | 482 kts | 199° |
| 2026-05-05 12:21 | 35.58221 | -78.14204 | 37255 ft | 482 kts | 199° |
| 2026-05-05 12:21 | 35.54981 | -78.15267 | 37457 ft | 482 kts | 199° |
| 2026-05-05 12:21 | 35.51740 | -78.16328 | 37636 ft | 482 kts | 199° |
| 2026-05-05 12:22 | 35.48490 | -78.17392 | 37807 ft | 483 kts | 199° |
| 2026-05-05 12:22 | 35.45249 | -78.18452 | 37983 ft | 483 kts | 199° |
| 2026-05-05 12:22 | 35.41993 | -78.19516 | 38143 ft | 484 kts | 199° |
| 2026-05-05 12:22 | 35.38736 | -78.20581 | 38146 ft | 487 kts | 199° |
| 2026-05-05 12:23 | 35.32196 | -78.22710 | 38126 ft | 484 kts | 200° |
| 2026-05-05 12:23 | 35.26165 | -78.26018 | 38156 ft | 471 kts | 220° |
| 2026-05-05 12:24 | 35.20978 | -78.30833 | 38133 ft | 470 kts | 222° |
| 2026-05-05 12:24 | 35.15785 | -78.35721 | 38141 ft | 470 kts | 222° |
| 2026-05-05 12:25 | 35.10586 | -78.40605 | 38147 ft | 470 kts | 222° |
| 2026-05-05 12:25 | 35.05431 | -78.45439 | 38148 ft | 471 kts | 222° |
| 2026-05-05 12:26 | 35.00232 | -78.50308 | 38137 ft | 471 kts | 222° |
| 2026-05-05 12:26 | 34.95036 | -78.55165 | 38130 ft | 470 kts | 222° |
| 2026-05-05 12:27 | 34.89834 | -78.60020 | 38124 ft | 471 kts | 222° |
| 2026-05-05 12:27 | 34.84627 | -78.64870 | 38101 ft | 471 kts | 222° |
| 2026-05-05 12:28 | 34.79421 | -78.69713 | 38119 ft | 471 kts | 222° |
| 2026-05-05 12:28 | 34.74204 | -78.74559 | 38123 ft | 472 kts | 222° |
| 2026-05-05 12:29 | 34.68962 | -78.79418 | 38124 ft | 473 kts | 223° |
| 2026-05-05 12:29 | 34.63728 | -78.84263 | 38119 ft | 473 kts | 223° |
| 2026-05-05 12:30 | 34.58521 | -78.89076 | 38117 ft | 473 kts | 223° |
| 2026-05-05 12:30 | 34.53274 | -78.93917 | 38117 ft | 474 kts | 223° |
| 2026-05-05 12:31 | 34.48010 | -78.98764 | 38115 ft | 474 kts | 223° |
| 2026-05-05 12:31 | 34.42756 | -79.03537 | 38119 ft | 476 kts | 220° |
| 2026-05-05 12:32 | 34.37339 | -79.08182 | 38126 ft | 477 kts | 221° |
| 2026-05-05 12:32 | 34.31912 | -79.12837 | 38128 ft | 478 kts | 221° |
| 2026-05-05 12:33 | 34.26468 | -79.17487 | 38126 ft | 477 kts | 223° |
| 2026-05-05 12:33 | 34.21342 | -79.22515 | 38142 ft | 476 kts | 225° |
| 2026-05-05 12:34 | 34.16195 | -79.27564 | 38134 ft | 476 kts | 226° |
| 2026-05-05 12:34 | 34.11102 | -79.32587 | 38129 ft | 477 kts | 226° |
| 2026-05-05 12:35 | 34.05980 | -79.37611 | 38128 ft | 477 kts | 226° |
| 2026-05-05 12:35 | 34.00823 | -79.42671 | 38124 ft | 477 kts | 226° |
| 2026-05-05 12:36 | 33.95665 | -79.47720 | 38127 ft | 478 kts | 226° |
| 2026-05-05 12:36 | 33.90504 | -79.52765 | 38124 ft | 478 kts | 226° |
| 2026-05-05 12:37 | 33.85230 | -79.57658 | 38146 ft | 483 kts | 221° |
| 2026-05-05 12:37 | 33.79639 | -79.62192 | 38130 ft | 484 kts | 222° |
| 2026-05-05 12:38 | 33.74074 | -79.66692 | 38124 ft | 485 kts | 221° |
| 2026-05-05 12:38 | 33.68470 | -79.71210 | 38127 ft | 485 kts | 222° |
| 2026-05-05 12:39 | 33.62854 | -79.75740 | 38132 ft | 486 kts | 222° |
| 2026-05-05 12:39 | 33.57267 | -79.80232 | 38126 ft | 486 kts | 222° |
| 2026-05-05 12:40 | 33.51612 | -79.84777 | 38125 ft | 486 kts | 223° |
| 2026-05-05 12:40 | 33.46021 | -79.89259 | 38125 ft | 487 kts | 223° |
| 2026-05-05 12:41 | 33.40386 | -79.93773 | 38113 ft | 488 kts | 223° |
| 2026-05-05 12:41 | 33.34726 | -79.98297 | 38131 ft | 489 kts | 223° |
| 2026-05-05 12:42 | 33.29095 | -80.02792 | 38128 ft | 489 kts | 223° |
| 2026-05-05 12:42 | 33.23440 | -80.07299 | 38129 ft | 489 kts | 223° |
| 2026-05-05 12:43 | 33.17780 | -80.11802 | 38127 ft | 489 kts | 223° |
| 2026-05-05 12:43 | 33.12099 | -80.16315 | 38129 ft | 489 kts | 223° |
| 2026-05-05 12:44 | 33.06427 | -80.20814 | 38118 ft | 489 kts | 223° |
| 2026-05-05 12:44 | 33.00782 | -80.25284 | 38122 ft | 489 kts | 223° |
| 2026-05-05 12:45 | 32.95095 | -80.29781 | 38118 ft | 490 kts | 223° |
| 2026-05-05 12:45 | 32.89402 | -80.34275 | 38118 ft | 490 kts | 223° |
| 2026-05-05 12:46 | 32.84683 | -80.37996 | 38118 ft | 490 kts | 222° |
| 2026-05-05 12:46 | 32.83371 | -80.39029 | 38121 ft | 490 kts | 222° |
| 2026-05-05 12:47 | 32.77713 | -80.43481 | 38119 ft | 491 kts | 222° |
| 2026-05-05 12:47 | 32.71986 | -80.47981 | 38118 ft | 490 kts | 222° |
| 2026-05-05 12:48 | 32.66284 | -80.52454 | 38116 ft | 491 kts | 222° |
| 2026-05-05 12:48 | 32.60616 | -80.56892 | 38114 ft | 490 kts | 222° |
| 2026-05-05 12:49 | 32.54923 | -80.61345 | 38107 ft | 490 kts | 222° |
| 2026-05-05 12:49 | 32.49207 | -80.65809 | 38113 ft | 491 kts | 221° |
| 2026-05-05 12:50 | 32.44467 | -80.69504 | 38112 ft | 491 kts | 221° |
| 2026-05-05 12:50 | 32.37829 | -80.74671 | 38135 ft | 490 kts | 221° |
| 2026-05-05 12:51 | 32.33096 | -80.78351 | 38123 ft | 490 kts | 221° |
| 2026-05-05 12:51 | 32.27387 | -80.82782 | 38114 ft | 490 kts | 222° |
| 2026-05-05 12:52 | 32.21689 | -80.87199 | 38121 ft | 489 kts | 222° |
| 2026-05-05 12:52 | 32.15989 | -80.91605 | 38107 ft | 490 kts | 220° |
| 2026-05-05 12:53 | 32.10027 | -80.95622 | 38085 ft | 495 kts | 219° |
| 2026-05-05 12:53 | 32.04030 | -80.99649 | 38076 ft | 496 kts | 219° |
| 2026-05-05 12:54 | 31.95053 | -81.05643 | 38073 ft | 496 kts | 219° |
| 2026-05-05 12:55 | 31.89059 | -81.09641 | 38075 ft | 496 kts | 219° |
| 2026-05-05 12:55 | 31.83050 | -81.13639 | 37731 ft | 492 kts | 220° |
| 2026-05-05 12:55 | 31.80052 | -81.15638 | 36837 ft | 497 kts | 220° |
| 2026-05-05 12:56 | 31.77061 | -81.17629 | 36237 ft | 495 kts | 220° |
| 2026-05-05 12:56 | 31.74060 | -81.19618 | 35584 ft | 494 kts | 220° |
| 2026-05-05 12:56 | 31.71071 | -81.21601 | 34928 ft | 494 kts | 220° |
| 2026-05-05 12:56 | 31.68066 | -81.23598 | 34239 ft | 495 kts | 220° |
| 2026-05-05 12:57 | 31.65061 | -81.25592 | 33485 ft | 497 kts | 219° |
| 2026-05-05 12:57 | 31.62046 | -81.27586 | 32747 ft | 496 kts | 219° |
| 2026-05-05 12:57 | 31.59075 | -81.29549 | 32012 ft | 496 kts | 219° |
| 2026-05-05 12:57 | 31.56077 | -81.31533 | 31231 ft | 495 kts | 218° |
| 2026-05-05 12:58 | 31.53045 | -81.33538 | 30410 ft | 494 kts | 218° |
| 2026-05-05 12:58 | 31.50088 | -81.35490 | 29556 ft | 492 kts | 217° |
| 2026-05-05 12:58 | 31.47112 | -81.37450 | 28738 ft | 488 kts | 217° |
| 2026-05-05 12:58 | 31.44160 | -81.39396 | 27954 ft | 484 kts | 217° |
| 2026-05-05 12:59 | 31.41232 | -81.41327 | 27161 ft | 481 kts | 216° |
| 2026-05-05 12:59 | 31.38331 | -81.43238 | 26384 ft | 477 kts | 216° |
| 2026-05-05 12:59 | 31.35442 | -81.45138 | 25624 ft | 474 kts | 216° |
| 2026-05-05 13:00 | 31.29724 | -81.48895 | 24098 ft | 468 kts | 215° |
| 2026-05-05 13:00 | 31.26886 | -81.50759 | 23308 ft | 465 kts | 214° |
| 2026-05-05 13:01 | 31.18625 | -81.56173 | 21130 ft | 447 kts | 214° |
| 2026-05-05 13:01 | 31.15893 | -81.57963 | 20409 ft | 442 kts | 213° |
| 2026-05-05 13:01 | 31.13269 | -81.59679 | 19719 ft | 436 kts | 213° |
| 2026-05-05 13:01 | 31.10631 | -81.61404 | 19015 ft | 431 kts | 213° |
| 2026-05-05 13:02 | 31.08021 | -81.63110 | 18332 ft | 427 kts | 213° |
| 2026-05-05 13:02 | 31.05449 | -81.64789 | 17626 ft | 420 kts | 213° |
| 2026-05-05 13:02 | 31.02916 | -81.66442 | 16971 ft | 414 kts | 212° |
| 2026-05-05 13:02 | 31.00421 | -81.68070 | 16308 ft | 407 kts | 212° |
| 2026-05-05 13:03 | 30.97967 | -81.69670 | 15675 ft | 401 kts | 212° |
| 2026-05-05 13:03 | 30.95546 | -81.71248 | 15048 ft | 395 kts | 211° |
| 2026-05-05 13:03 | 30.93158 | -81.72803 | 14437 ft | 390 kts | 211° |
| 2026-05-05 13:03 | 30.90805 | -81.74333 | 13819 ft | 385 kts | 211° |
| 2026-05-05 13:04 | 30.88489 | -81.75839 | 13182 ft | 379 kts | 211° |
| 2026-05-05 13:04 | 30.86204 | -81.77324 | 12600 ft | 372 kts | 211° |
| 2026-05-05 13:04 | 30.83961 | -81.78781 | 12040 ft | 366 kts | 211° |
| 2026-05-05 13:04 | 30.81759 | -81.80211 | 11468 ft | 360 kts | 210° |
| 2026-05-05 13:05 | 30.79605 | -81.81608 | 11197 ft | 346 kts | 210° |
| 2026-05-05 13:05 | 30.77578 | -81.82922 | 11072 ft | 329 kts | 210° |
| 2026-05-05 13:05 | 30.75630 | -81.84184 | 10946 ft | 313 kts | 210° |
| 2026-05-05 13:05 | 30.73768 | -81.85392 | 10821 ft | 298 kts | 211° |
| 2026-05-05 13:06 | 30.72000 | -81.86539 | 10703 ft | 284 kts | 211° |
| 2026-05-05 13:06 | 30.70313 | -81.87630 | 10584 ft | 271 kts | 211° |
| 2026-05-05 13:06 | 30.68684 | -81.88684 | 10433 ft | 269 kts | 211° |
| 2026-05-05 13:06 | 30.67036 | -81.89752 | 10203 ft | 272 kts | 210° |
| 2026-05-05 13:07 | 30.65412 | -81.90839 | 9937 ft | 266 kts | 217° |
| 2026-05-05 13:07 | 30.64053 | -81.92286 | 9648 ft | 265 kts | 221° |
| 2026-05-05 13:07 | 30.62598 | -81.93602 | 9329 ft | 263 kts | 220° |
| 2026-05-05 13:07 | 30.61156 | -81.94845 | 9008 ft | 262 kts | 217° |
| 2026-05-05 13:08 | 30.59631 | -81.96063 | 8664 ft | 260 kts | 214° |
| 2026-05-05 13:08 | 30.58154 | -81.97147 | 8353 ft | 253 kts | 212° |
| 2026-05-05 13:08 | 30.56602 | -81.98192 | 8024 ft | 260 kts | 210° |
| 2026-05-05 13:08 | 30.55072 | -81.99134 | 7747 ft | 239 kts | 208° |
| 2026-05-05 13:09 | 30.53628 | -81.99947 | 7465 ft | 223 kts | 206° |
| 2026-05-05 13:09 | 30.52245 | -82.00663 | 7201 ft | 214 kts | 205° |
| 2026-05-05 13:09 | 30.50872 | -82.01313 | 6946 ft | 211 kts | 203° |
| 2026-05-05 13:09 | 30.49493 | -82.01906 | 6660 ft | 211 kts | 201° |
| 2026-05-05 13:10 | 30.48097 | -82.02449 | 6378 ft | 211 kts | 199° |
| 2026-05-05 13:10 | 30.46667 | -82.02755 | 6040 ft | 212 kts | 175° |
| 2026-05-05 13:10 | 30.45322 | -82.02100 | 5751 ft | 212 kts | 142° |
| 2026-05-05 13:10 | 30.44523 | -82.00687 | 5486 ft | 214 kts | 108° |
| 2026-05-05 13:11 | 30.44155 | -81.99013 | 5241 ft | 214 kts | 103° |
| 2026-05-05 13:11 | 30.43822 | -81.97338 | 4965 ft | 213 kts | 103° |
| 2026-05-05 13:11 | 30.43477 | -81.95683 | 4669 ft | 211 kts | 104° |
| 2026-05-05 13:11 | 30.43130 | -81.94059 | 4382 ft | 209 kts | 104° |
| 2026-05-05 13:12 | 30.42844 | -81.92465 | 4084 ft | 190 kts | 94° |
| 2026-05-05 13:12 | 30.43198 | -81.91051 | 3859 ft | 184 kts | 64° |
| 2026-05-05 13:12 | 30.43642 | -81.89664 | 3610 ft | 186 kts | 72° |
| 2026-05-05 13:12 | 30.44023 | -81.88251 | 3377 ft | 183 kts | 71° |
| 2026-05-05 13:13 | 30.44444 | -81.86848 | 3137 ft | 181 kts | 70° |
| 2026-05-05 13:13 | 30.44871 | -81.85492 | 2820 ft | 182 kts | 70° |
| 2026-05-05 13:13 | 30.45304 | -81.84141 | 2571 ft | 178 kts | 71° |
| 2026-05-05 13:13 | 30.45721 | -81.82782 | 2335 ft | 178 kts | 71° |
| 2026-05-05 13:14 | 30.46135 | -81.81428 | 2088 ft | 178 kts | 72° |
| 2026-05-05 13:14 | 30.46550 | -81.80076 | 1854 ft | 177 kts | 72° |
| 2026-05-05 13:14 | 30.46964 | -81.78719 | 1613 ft | 180 kts | 72° |
| 2026-05-05 13:14 | 30.47377 | -81.77363 | 1363 ft | 177 kts | 72° |
| 2026-05-05 13:15 | 30.47787 | -81.76018 | 1133 ft | 176 kts | 72° |
| 2026-05-05 13:15 | 30.48192 | -81.74693 | 907 ft | 176 kts | 72° |
| 2026-05-05 13:15 | 30.48588 | -81.73370 | 668 ft | 172 kts | 71° |
| 2026-05-05 13:15 | 30.48986 | -81.72068 | 443 ft | 171 kts | 70° |
| 2026-05-05 13:16 | 30.49381 | -81.70780 | 226 ft | 169 kts | 70° |
| 2026-05-05 13:16 | 30.49770 | -81.69503 | 46 ft | 160 kts | 70° |
| 2026-05-05 13:16 | 30.50073 | -81.68512 | 42 ft | 87 kts | 70° |
| 2026-05-05 13:16 | 30.50176 | -81.68175 | 44 ft | 11 kts | 71° |
| 2026-05-05 13:17 | 30.50195 | -81.68113 | 44 ft | 6 kts | 70° |
| 2026-05-05 13:17 | 30.50215 | -81.68046 | 44 ft | 25 kts | 70° |
| 2026-05-05 13:17 | 30.50288 | -81.67806 | 38 ft | 29 kts | 71° |
| 2026-05-05 13:17 | 30.50330 | -81.67665 | 38 ft | 8 kts | 71° |
| 2026-05-05 13:18 | 30.50300 | -81.67597 | 39 ft | 20 kts | 154° |
| 2026-05-05 13:18 | 30.50233 | -81.67566 | 37 ft | 6 kts | 160° |
| 2026-05-05 13:18 | 30.50219 | -81.67560 | 37 ft | 0 kts | 160° |
| 2026-05-05 13:18 | 30.50215 | -81.67559 | 37 ft | 0 kts | 165° |
| 2026-05-05 13:19 | 30.50213 | -81.67559 | 37 ft | 1 kts | 176° |
| 2026-05-05 13:19 | 30.50197 | -81.67574 | 37 ft | 7 kts | 229° |
| 2026-05-05 13:19 | 30.50156 | -81.67675 | 37 ft | 16 kts | 248° |
| 2026-05-05 13:19 | 30.50119 | -81.67790 | 42 ft | 14 kts | 250° |
| 2026-05-05 13:20 | 30.50087 | -81.67898 | 43 ft | 15 kts | 251° |
| 2026-05-05 13:20 | 30.50052 | -81.68016 | 43 ft | 17 kts | 251° |
| 2026-05-05 13:20 | 30.50014 | -81.68145 | 44 ft | 17 kts | 251° |
| 2026-05-05 13:20 | 30.49973 | -81.68279 | 42 ft | 18 kts | 251° |
| 2026-05-05 13:21 | 30.49922 | -81.68414 | 39 ft | 16 kts | 226° |
| 2026-05-05 13:21 | 30.49826 | -81.68457 | 41 ft | 15 kts | 192° |
| 2026-05-05 13:21 | 30.49725 | -81.68478 | 41 ft | 15 kts | 189° |
| 2026-05-05 13:21 | 30.49638 | -81.68496 | 41 ft | 12 kts | 190° |
| 2026-05-05 13:22 | 30.49557 | -81.68512 | 42 ft | 11 kts | 188° |
| 2026-05-05 13:22 | 30.49496 | -81.68490 | 43 ft | 8 kts | 134° |
| 2026-05-05 13:22 | 30.49458 | -81.68460 | 44 ft | 2 kts | 173° |
| 2026-05-05 13:22 | 30.49446 | -81.68464 | 44 ft | 3 kts | 202° |
| 2026-05-05 13:23 | 30.49408 | -81.68494 | 45 ft | 7 kts | 222° |
| 2026-05-05 13:23 | 30.49394 | -81.68511 | 45 ft | 0 kts | 227° |